Time;durP1;ratioP1;P1;durP2;ratioP2;P2;SDS_P1;SDS_P2;PMS_P1;PMS_P2;Temp;Humidity;BMP_temperature;BMP_pressure;BME280_temperature;BME280_humidity;BME280_pressure;Samples;Min_cycle;Max_cycle;Signal;HPM_P1;HPM_P2
2023/08/02 00:01:26;;;;;;;;;;;21.60;66.00;;;;;;10296787;28;93971;-64
2023/08/02 00:06:28;;;;;;;;;;;21.60;66.10;;;;;;10325548;28;93573;-64
2023/08/02 00:11:30;;;;;;;;;;;21.60;66.00;;;;;;10278680;28;93269;-64
2023/08/02 00:16:33;;;;;;;;;;;21.60;66.00;;;;;;10319364;28;93559;-63
2023/08/02 00:21:35;;;;;;;;;;;21.50;66.00;;;;;;10309203;28;93509;-65
2023/08/02 00:26:37;;;;;;;;;;;21.50;66.00;;;;;;10296134;28;93701;-64
2023/08/02 00:31:41;;;;;;;;;;;21.50;66.00;;;;;;10316835;28;93480;-65
2023/08/02 00:36:43;;;;;;;;;;;21.50;66.00;;;;;;10282646;28;94658;-64
2023/08/02 00:41:45;;;;;;;;;;;21.50;66.00;;;;;;10286017;28;96807;-64
2023/08/02 00:46:47;;;;;;;;;;;21.50;66.00;;;;;;10287464;28;93589;-64
2023/08/02 00:51:49;;;;;;;;;;;21.50;66.00;;;;;;10293717;28;94510;-64
2023/08/02 00:56:51;;;;;;;;;;;21.40;66.00;;;;;;10293257;28;94517;-64
2023/08/02 01:01:53;;;;;;;;;;;21.40;66.00;;;;;;10291938;28;93435;-64
2023/08/02 01:06:59;;;;;;;;;;;21.40;66.00;;;;;;10292945;28;93652;-64
2023/08/02 01:12:04;;;;;;;;;;;21.40;66.10;;;;;;10294740;28;94182;-64
2023/08/02 01:17:07;;;;;;;;;;;21.40;66.10;;;;;;10293618;28;94729;-64
2023/08/02 01:22:09;;;;;;;;;;;21.30;66.10;;;;;;10308320;28;94718;-64
2023/08/02 01:27:13;;;;;;;;;;;21.40;66.10;;;;;;10319041;28;95509;-64
2023/08/02 01:32:16;;;;;;;;;;;21.30;66.10;;;;;;10304811;28;95845;-64
2023/08/02 01:37:18;;;;;;;;;;;21.30;66.10;;;;;;10326447;28;94484;-64
2023/08/02 01:42:19;;;;;;;;;;;21.30;66.10;;;;;;10299104;28;93462;-64
2023/08/02 01:47:21;;;;;;;;;;;21.30;66.10;;;;;;10334357;28;92739;-64
2023/08/02 01:52:23;;;;;;;;;;;21.30;66.10;;;;;;10314955;28;93537;-64
2023/08/02 01:57:25;;;;;;;;;;;21.30;66.20;;;;;;10333196;28;94416;-64
2023/08/02 02:02:27;;;;;;;;;;;21.30;66.20;;;;;;10313795;28;94639;-64
2023/08/02 02:07:29;;;;;;;;;;;21.30;66.10;;;;;;10333790;28;93532;-64
2023/08/02 02:12:33;;;;;;;;;;;21.30;66.20;;;;;;10331762;28;112615;-64
2023/08/02 02:17:35;;;;;;;;;;;21.20;66.20;;;;;;10332625;28;93103;-65
2023/08/02 02:22:37;;;;;;;;;;;21.20;66.10;;;;;;10328973;28;96028;-64
2023/08/02 02:27:39;;;;;;;;;;;21.20;66.20;;;;;;10317980;28;94442;-64
2023/08/02 02:32:40;;;;;;;;;;;21.20;66.10;;;;;;10290998;28;93483;-64
2023/08/02 02:37:42;;;;;;;;;;;21.20;66.10;;;;;;10290848;28;94684;-64
2023/08/02 02:42:44;;;;;;;;;;;21.20;66.10;;;;;;10290883;28;94167;-64
2023/08/02 02:47:46;;;;;;;;;;;21.20;66.10;;;;;;10291085;28;93314;-64
2023/08/02 02:52:48;;;;;;;;;;;21.10;66.00;;;;;;10294465;28;93114;-65
2023/08/02 02:57:50;;;;;;;;;;;21.10;66.00;;;;;;10323762;28;92840;-63
2023/08/02 03:02:52;;;;;;;;;;;21.10;66.00;;;;;;10331921;28;94453;-64
2023/08/02 03:07:54;;;;;;;;;;;21.10;66.00;;;;;;10315384;28;94491;-65
2023/08/02 03:12:56;;;;;;;;;;;21.10;66.10;;;;;;10328354;28;96496;-65
2023/08/02 03:17:58;;;;;;;;;;;21.10;66.00;;;;;;10331028;28;94434;-65
2023/08/02 03:23:00;;;;;;;;;;;21.10;65.90;;;;;;10329804;28;94471;-63
2023/08/02 03:28:02;;;;;;;;;;;21.10;66.00;;;;;;10310968;28;94438;-63
2023/08/02 03:33:04;;;;;;;;;;;21.10;65.90;;;;;;10307126;28;92758;-64
2023/08/02 03:38:05;;;;;;;;;;;21.10;65.80;;;;;;10313869;28;93513;-64
2023/08/02 03:43:07;;;;;;;;;;;21.10;65.80;;;;;;10303269;28;93426;-64
2023/08/02 03:48:09;;;;;;;;;;;21.10;65.80;;;;;;10326627;28;93699;-64
2023/08/02 03:53:10;;;;;;;;;;;21.10;65.80;;;;;;10287829;28;93398;-63
2023/08/02 03:58:12;;;;;;;;;;;21.10;65.70;;;;;;10288224;28;94423;-64
2023/08/02 04:03:14;;;;;;;;;;;21.20;65.80;;;;;;10268281;28;95874;-63
2023/08/02 04:08:16;;;;;;;;;;;21.20;65.70;;;;;;10288847;28;93322;-65
2023/08/02 04:13:18;;;;;;;;;;;21.20;65.70;;;;;;10288822;28;93445;-64
2023/08/02 04:18:20;;;;;;;;;;;21.20;65.70;;;;;;10286530;28;93302;-61
2023/08/02 04:23:22;;;;;;;;;;;21.20;65.60;;;;;;10287580;28;94385;-61
2023/08/02 04:28:24;;;;;;;;;;;21.20;65.60;;;;;;10287268;28;93798;-61
2023/08/02 04:33:25;;;;;;;;;;;21.20;65.50;;;;;;10287347;28;93496;-61
2023/08/02 04:38:27;;;;;;;;;;;21.20;65.60;;;;;;10288788;28;92184;-61
2023/08/02 04:43:29;;;;;;;;;;;21.20;65.60;;;;;;10270651;28;93219;-61
2023/08/02 04:54:17;;;;;;;;;;;21.20;65.50;;;;;;10309808;28;96916;-63
2023/08/02 04:59:19;;;;;;;;;;;21.20;65.40;;;;;;10323476;28;93455;-64
2023/08/02 05:04:20;;;;;;;;;;;21.20;65.40;;;;;;10323675;28;94354;-63
2023/08/02 05:09:22;;;;;;;;;;;21.20;65.40;;;;;;10327309;28;93827;-63
2023/08/02 05:14:24;;;;;;;;;;;21.20;65.40;;;;;;10327629;28;94431;-63
2023/08/02 05:19:26;;;;;;;;;;;21.20;65.40;;;;;;10327459;28;94760;-63
2023/08/02 05:24:28;;;;;;;;;;;21.20;65.30;;;;;;10327306;28;93585;-63
2023/08/02 05:29:29;;;;;;;;;;;21.20;65.40;;;;;;10327937;28;93330;-63
2023/08/02 05:34:31;;;;;;;;;;;21.20;65.30;;;;;;10310315;28;93443;-63
2023/08/02 05:39:33;;;;;;;;;;;21.20;65.30;;;;;;10332246;28;94662;-63
2023/08/02 05:44:36;;;;;;;;;;;21.20;65.20;;;;;;10329381;28;96180;-63
2023/08/02 05:49:38;;;;;;;;;;;21.20;65.20;;;;;;10332307;28;94429;-63
2023/08/02 05:54:40;;;;;;;;;;;21.20;66.20;;;;;;10332632;28;93176;-63
2023/08/02 05:59:42;;;;;;;;;;;21.20;65.20;;;;;;10327657;28;93431;-63
2023/08/02 06:04:44;;;;;;;;;;;21.20;65.40;;;;;;10331370;28;94361;-62
2023/08/02 06:09:48;;;;;;;;;;;21.20;65.30;;;;;;10331160;28;93610;-60
2023/08/02 06:14:50;;;;;;;;;;;21.20;65.40;;;;;;10332224;28;94018;-61
2023/08/02 06:19:52;;;;;;;;;;;21.20;65.50;;;;;;10331616;28;92730;-61
2023/08/02 06:24:53;;;;;;;;;;;21.20;65.50;;;;;;10331234;28;94595;-61
2023/08/02 06:29:55;;;;;;;;;;;21.20;65.60;;;;;;10314308;28;94667;-61
2023/08/02 06:34:57;;;;;;;;;;;21.30;65.90;;;;;;10311093;28;95904;-61
2023/08/02 06:39:58;;;;;;;;;;;21.30;65.90;;;;;;10330679;28;93481;-61
2023/08/02 06:45:00;;;;;;;;;;;21.30;65.90;;;;;;10330778;28;93386;-61
2023/08/02 06:50:02;;;;;;;;;;;21.30;66.10;;;;;;10312543;28;93657;-61
2023/08/02 06:55:04;;;;;;;;;;;21.30;66.10;;;;;;10311601;28;93447;-61
2023/08/02 07:00:06;;;;;;;;;;;21.30;66.50;;;;;;10330654;28;94417;-61
2023/08/02 07:05:08;;;;;;;;;;;21.20;66.70;;;;;;10329439;28;92987;-61
2023/08/02 07:10:11;;;;;;;;;;;21.20;66.90;;;;;;10331230;28;93922;-61
2023/08/02 07:15:13;;;;;;;;;;;21.20;67.00;;;;;;10311939;28;94530;-61
2023/08/02 07:20:14;;;;;;;;;;;21.20;67.20;;;;;;10329223;28;94563;-61
2023/08/02 07:25:16;;;;;;;;;;;21.20;67.40;;;;;;10327253;28;95431;-61
2023/08/02 07:30:18;;;;;;;;;;;21.20;67.50;;;;;;10329464;28;93486;-61
2023/08/02 07:35:20;;;;;;;;;;;21.20;67.60;;;;;;10328807;28;93505;-61
2023/08/02 07:40:21;;;;;;;;;;;21.20;67.60;;;;;;10329948;28;93249;-61
2023/08/02 07:45:23;;;;;;;;;;;21.20;67.80;;;;;;10328748;28;93473;-61
2023/08/02 07:50:25;;;;;;;;;;;21.20;68.00;;;;;;10328119;28;93872;-61
2023/08/02 07:55:27;;;;;;;;;;;21.20;68.10;;;;;;10311177;28;93451;-61
2023/08/02 08:00:28;;;;;;;;;;;21.20;68.20;;;;;;10312023;28;92025;-61
2023/08/02 08:05:30;;;;;;;;;;;21.20;68.30;;;;;;10310987;28;93301;-61
2023/08/02 08:10:32;;;;;;;;;;;21.20;68.40;;;;;;10329453;28;93667;-61
2023/08/02 08:15:34;;;;;;;;;;;21.20;68.60;;;;;;10326278;28;97166;-60
2023/08/02 08:20:36;;;;;;;;;;;21.20;68.60;;;;;;10327890;28;92612;-61
2023/08/02 08:25:38;;;;;;;;;;;21.20;68.70;;;;;;10328300;28;93492;-64
2023/08/02 08:30:39;;;;;;;;;;;21.20;68.80;;;;;;10327445;28;93466;-61
2023/08/02 08:35:41;;;;;;;;;;;21.20;69.00;;;;;;10294025;28;94518;-61
2023/08/02 08:40:48;;;;;;;;;;;21.20;69.00;;;;;;10327137;28;93451;-61
2023/08/02 08:45:50;;;;;;;;;;;21.20;69.10;;;;;;10328404;28;94321;-62
2023/08/02 08:50:55;;;;;;;;;;;21.20;69.20;;;;;;10310760;28;93951;-62
2023/08/02 08:55:58;;;;;;;;;;;21.20;69.30;;;;;;10309405;28;93516;-61
2023/08/02 09:01:03;;;;;;;;;;;21.20;69.30;;;;;;10326445;28;93587;-62
2023/08/02 09:06:05;;;;;;;;;;;21.20;69.80;;;;;;10324746;28;95863;-62
2023/08/02 09:11:07;;;;;;;;;;;21.30;70.00;;;;;;10331774;28;93373;-61
2023/08/02 09:16:09;;;;;;;;;;;21.30;71.50;;;;;;10316933;28;93318;-62
2023/08/02 09:21:15;;;;;;;;;;;21.40;72.60;;;;;;10333675;28;93401;-61
2023/08/02 09:26:18;;;;;;;;;;;21.40;71.00;;;;;;10315620;28;93670;-62
2023/08/02 09:31:19;;;;;;;;;;;21.50;71.20;;;;;;10316400;28;94557;-62
2023/08/02 09:36:22;;;;;;;;;;;21.50;71.50;;;;;;10314106;28;93754;-63
2023/08/02 09:41:24;;;;;;;;;;;21.60;71.20;;;;;;10314549;28;94085;-62
2023/08/02 09:46:30;;;;;;;;;;;21.60;71.70;;;;;;10292795;28;93173;-62
2023/08/02 09:51:41;;;;;;;;;;;21.60;71.60;;;;;;10352016;22;93682;-66
2023/08/02 09:56:44;;;;;;;;;;;21.70;71.70;;;;;;10329749;28;95933;-65
2023/08/02 10:01:47;;;;;;;;;;;21.70;71.70;;;;;;10331648;28;93455;-65
2023/08/02 10:06:53;;;;;;;;;;;21.70;72.10;;;;;;10313478;28;94583;-65
2023/08/02 10:12:08;;;;;;;;;;;21.70;71.90;;;;;;10332356;28;93147;-66
2023/08/02 10:17:10;;;;;;;;;;;21.60;71.50;;;;;;10332414;28;93501;-67
2023/08/02 10:22:12;;;;;;;;;;;21.60;71.50;;;;;;10312170;28;94488;-66
2023/08/02 10:27:15;;;;;;;;;;;21.60;71.60;;;;;;10306162;28;94561;-66
2023/08/02 10:32:18;;;;;;;;;;;21.60;71.50;;;;;;10325792;28;92686;-65
2023/08/02 10:37:20;;;;;;;;;;;21.60;71.40;;;;;;10316706;28;92777;-65
2023/08/02 10:42:24;;;;;;;;;;;21.60;71.40;;;;;;10323433;28;94631;-64
2023/08/02 10:47:29;;;;;;;;;;;21.60;71.40;;;;;;10310292;28;95875;-66
2023/08/02 10:52:35;;;;;;;;;;;21.70;71.40;;;;;;10329824;28;93497;-66
2023/08/02 10:57:57;;;;;;;;;;;21.70;71.20;;;;;;10331551;28;93447;-65
2023/08/02 11:02:59;;;;;;;;;;;21.70;71.10;;;;;;10330562;28;94323;-64
2023/08/02 11:08:01;;;;;;;;;;;21.70;71.00;;;;;;10331353;28;93440;-64
2023/08/02 11:13:03;;;;;;;;;;;21.80;71.00;;;;;;10330404;28;93442;-64
2023/08/02 11:18:05;;;;;;;;;;;21.80;71.00;;;;;;10331365;28;94294;-65
2023/08/02 11:23:24;;;;;;;;;;;21.80;70.90;;;;;;10331142;28;93906;-65
2023/08/02 11:28:26;;;;;;;;;;;21.80;71.10;;;;;;10330342;28;94425;-66
2023/08/02 11:33:27;;;;;;;;;;;21.80;70.90;;;;;;10310872;28;94769;-64
2023/08/02 11:38:29;;;;;;;;;;;21.90;71.00;;;;;;10327524;28;97315;-65
2023/08/02 11:43:35;;;;;;;;;;;21.90;71.00;;;;;;10329253;28;96378;-66
2023/08/02 12:14:29;;;;;;;;;;;21.80;71.10;;;;;;10316264;28;92195;-65
2023/08/02 12:19:38;;;;;;;;;;;21.90;71.00;;;;;;10328372;28;94666;-66
2023/08/02 12:24:40;;;;;;;;;;;21.90;71.00;;;;;;10328324;28;94748;-66
2023/08/02 12:29:43;;;;;;;;;;;21.90;71.00;;;;;;10324199;28;95832;-65
2023/08/02 12:34:44;;;;;;;;;;;21.90;71.00;;;;;;10327741;28;94401;-66
2023/08/02 12:39:49;;;;;;;;;;;21.90;71.10;;;;;;10328625;28;94576;-66
2023/08/02 12:44:51;;;;;;;;;;;22.00;71.10;;;;;;10331972;28;94338;-66
2023/08/02 12:49:57;;;;;;;;;;;22.00;71.20;;;;;;10338209;28;94463;-65
2023/08/02 12:54:59;;;;;;;;;;;22.00;71.10;;;;;;10334261;28;94555;-66
2023/08/02 13:00:01;;;;;;;;;;;22.00;71.20;;;;;;10335083;28;93409;-66
2023/08/02 13:05:04;;;;;;;;;;;22.00;71.10;;;;;;10335327;28;93084;-65
2023/08/02 13:20:27;;;;;;;;;;;22.00;70.80;;;;;;10263383;28;97359;-66
2023/08/02 13:25:33;;;;;;;;;;;22.10;70.60;;;;;;10334107;28;93435;-66
2023/08/02 13:30:35;;;;;;;;;;;22.10;70.60;;;;;;10333865;28;94219;-65
2023/08/02 13:35:37;;;;;;;;;;;22.10;70.40;;;;;;10333548;28;92514;-64
2023/08/02 13:40:38;;;;;;;;;;;22.10;70.30;;;;;;10315752;28;94843;-64
2023/08/02 13:45:40;;;;;;;;;;;22.10;70.30;;;;;;10334110;28;94341;-65
2023/08/02 13:50:42;;;;;;;;;;;22.10;70.30;;;;;;10333706;28;93607;-66
2023/08/02 13:55:44;;;;;;;;;;;22.10;70.40;;;;;;10316417;28;93577;-65
2023/08/02 14:00:46;;;;;;;;;;;22.10;70.30;;;;;;10332247;28;93408;-65
2023/08/02 14:05:48;;;;;;;;;;;22.10;70.30;;;;;;10333372;28;93428;-66
2023/08/02 14:10:49;;;;;;;;;;;22.10;70.30;;;;;;10329659;28;97004;-66
2023/08/02 14:15:51;;;;;;;;;;;22.10;70.30;;;;;;10332118;28;95343;-66
2023/08/02 14:20:53;;;;;;;;;;;22.10;70.40;;;;;;10332050;28;93468;-65
2023/08/02 14:25:55;;;;;;;;;;;22.10;70.30;;;;;;10332856;28;93204;-66
2023/08/02 14:30:59;;;;;;;;;;;22.10;70.30;;;;;;10331887;28;94332;-65
2023/08/02 14:36:01;;;;;;;;;;;22.10;70.30;;;;;;10332977;28;93594;-65
2023/08/02 14:41:03;;;;;;;;;;;22.10;70.20;;;;;;10314288;28;93683;-66
2023/08/02 14:46:06;;;;;;;;;;;22.10;70.30;;;;;;10333462;28;93770;-66
2023/08/02 14:51:08;;;;;;;;;;;22.10;70.40;;;;;;10333113;28;93307;-65
2023/08/02 14:56:10;;;;;;;;;;;22.10;70.30;;;;;;10331657;28;94778;-66
2023/08/02 15:01:11;;;;;;;;;;;22.10;70.30;;;;;;10327588;28;95225;-66
2023/08/02 15:06:13;;;;;;;;;;;22.00;70.20;;;;;;10329778;28;93314;-65
2023/08/02 15:11:15;;;;;;;;;;;22.00;70.20;;;;;;10332597;28;93534;-65
2023/08/02 15:16:17;;;;;;;;;;;22.00;70.30;;;;;;10329815;28;94010;-67
2023/08/02 15:21:19;;;;;;;;;;;22.10;70.30;;;;;;10326055;28;94508;-66
2023/08/02 15:26:20;;;;;;;;;;;22.00;70.30;;;;;;10329060;28;94461;-67
2023/08/02 15:31:23;;;;;;;;;;;22.00;70.10;;;;;;10346677;28;93745;-66
2023/08/02 15:36:25;;;;;;;;;;;22.00;70.00;;;;;;10353184;28;93852;-67
2023/08/02 15:41:26;;;;;;;;;;;22.00;70.10;;;;;;10371855;28;94350;-67
2023/08/02 15:46:28;;;;;;;;;;;21.90;69.90;;;;;;10372384;28;92916;-67
2023/08/02 15:51:30;;;;;;;;;;;21.90;69.90;;;;;;10366769;28;95954;-66
2023/08/02 15:56:32;;;;;;;;;;;21.90;69.80;;;;;;10368815;28;94429;-67
2023/08/02 16:01:34;;;;;;;;;;;21.90;69.60;;;;;;10369565;28;93874;-66
2023/08/02 16:06:36;;;;;;;;;;;22.00;69.60;;;;;;10369523;28;93778;-66
2023/08/02 16:11:41;;;;;;;;;;;22.10;70.30;;;;;;10369245;28;92943;-66
2023/08/02 16:16:43;;;;;;;;;;;22.30;72.00;;;;;;10351209;28;93185;-64
2023/08/02 16:21:45;;;;;;;;;;;22.50;73.00;;;;;;10350887;28;93809;-65
2023/08/02 16:26:47;;;;;;;;;;;22.90;73.40;;;;;;10370177;28;93680;-64
2023/08/02 16:31:49;;;;;;;;;;;23.00;72.80;;;;;;10350672;28;93954;-66
2023/08/02 16:36:50;;;;;;;;;;;23.20;71.40;;;;;;10374364;28;93027;-67
2023/08/02 16:41:52;;;;;;;;;;;23.20;70.90;;;;;;10348163;28;98407;-66
2023/08/02 16:46:54;;;;;;;;;;;23.00;71.00;;;;;;10350092;28;93278;-65
2023/08/02 16:51:56;;;;;;;;;;;22.90;71.20;;;;;;10368495;28;93435;-65
2023/08/02 16:56:58;;;;;;;;;;;22.90;71.40;;;;;;10369004;28;93434;-66
2023/08/02 17:02:00;;;;;;;;;;;22.80;71.40;;;;;;10368649;28;96212;-65
2023/08/02 17:07:02;;;;;;;;;;;22.80;71.50;;;;;;10372679;28;93302;-66
2023/08/02 17:12:04;;;;;;;;;;;22.70;71.30;;;;;;10367564;28;92947;-65
2023/08/02 17:17:07;;;;;;;;;;;22.70;71.10;;;;;;10369904;28;92802;-65
2023/08/02 17:22:08;;;;;;;;;;;22.70;71.40;;;;;;10349089;28;94439;-67
2023/08/02 17:27:10;;;;;;;;;;;22.60;71.30;;;;;;10350224;28;93441;-66
2023/08/02 17:32:12;;;;;;;;;;;22.60;71.40;;;;;;10370301;28;95858;-66
2023/08/02 17:37:14;;;;;;;;;;;22.60;71.50;;;;;;10375850;28;93499;-66
2023/08/02 17:42:15;;;;;;;;;;;22.60;71.60;;;;;;10378285;28;94221;-66
2023/08/02 17:47:17;;;;;;;;;;;22.50;71.50;;;;;;10377193;28;94086;-65
2023/08/02 17:52:19;;;;;;;;;;;22.50;71.50;;;;;;10374430;28;93736;-65
2023/08/02 17:57:21;;;;;;;;;;;22.50;71.60;;;;;;10374893;28;94052;-66
2023/08/02 18:02:23;;;;;;;;;;;22.50;71.70;;;;;;10374892;28;93305;-67
2023/08/02 18:07:25;;;;;;;;;;;22.50;71.70;;;;;;10356809;28;93139;-66
2023/08/02 18:12:26;;;;;;;;;;;22.50;71.70;;;;;;10376242;28;94404;-66
2023/08/02 18:17:28;;;;;;;;;;;22.50;71.70;;;;;;10373134;28;93565;-66
2023/08/02 18:22:30;;;;;;;;;;;22.40;71.80;;;;;;10369473;28;96121;-65
2023/08/02 18:27:32;;;;;;;;;;;22.40;71.70;;;;;;10371366;28;93478;-63
2023/08/02 18:32:34;;;;;;;;;;;22.40;71.60;;;;;;10371989;28;93465;-66
2023/08/02 18:37:35;;;;;;;;;;;22.40;71.60;;;;;;10373293;28;93424;-66
2023/08/02 18:42:37;;;;;;;;;;;22.50;71.50;;;;;;10353714;28;94508;-65
2023/08/02 18:47:39;;;;;;;;;;;22.50;71.30;;;;;;10371085;28;93409;-64
2023/08/02 18:52:40;;;;;;;;;;;22.50;71.10;;;;;;10354755;28;94378;-66
2023/08/02 18:57:42;;;;;;;;;;;22.40;71.00;;;;;;10372345;28;92840;-66
2023/08/02 19:02:44;;;;;;;;;;;22.40;71.00;;;;;;10371538;28;93722;-66
2023/08/02 19:07:46;;;;;;;;;;;22.40;71.00;;;;;;10354390;28;94501;-65
2023/08/02 19:12:50;;;;;;;;;;;22.40;71.10;;;;;;10350852;28;95860;-66
2023/08/02 19:17:52;;;;;;;;;;;22.30;71.10;;;;;;10371973;28;94649;-66
2023/08/02 19:22:54;;;;;;;;;;;22.30;71.10;;;;;;10369359;28;92963;-66
2023/08/02 19:28:00;;;;;;;;;;;22.30;71.20;;;;;;10370720;28;93969;-66
2023/08/02 19:33:03;;;;;;;;;;;22.30;70.90;;;;;;10369896;28;95916;-66
2023/08/02 19:38:05;;;;;;;;;;;22.30;71.00;;;;;;10370339;28;94785;-66
2023/08/02 19:43:08;;;;;;;;;;;22.30;71.10;;;;;;10370666;28;94400;-66
2023/08/02 19:48:10;;;;;;;;;;;22.30;71.30;;;;;;10370469;28;92984;-65
2023/08/02 19:53:13;;;;;;;;;;;22.30;71.20;;;;;;10369600;28;94803;-65
2023/08/02 19:58:14;;;;;;;;;;;22.30;71.20;;;;;;10366021;28;94456;-66
2023/08/02 20:03:16;;;;;;;;;;;22.30;71.10;;;;;;10346312;28;96694;-65
2023/08/02 20:08:19;;;;;;;;;;;22.30;71.10;;;;;;10369400;28;94399;-65
2023/08/02 20:13:24;;;;;;;;;;;22.30;71.10;;;;;;10370041;28;93424;-66
2023/08/02 20:18:26;;;;;;;;;;;22.30;71.10;;;;;;10351785;28;93484;-66
2023/08/02 20:23:29;;;;;;;;;;;22.30;71.10;;;;;;10351401;28;93305;-67
2023/08/02 20:28:35;;;;;;;;;;;22.30;71.10;;;;;;10369773;28;94459;-65
2023/08/02 20:33:37;;;;;;;;;;;22.30;71.10;;;;;;10370864;28;93426;-66
2023/08/02 20:38:44;;;;;;;;;;;22.30;71.10;;;;;;10370762;28;93783;-66
2023/08/02 20:43:46;;;;;;;;;;;22.30;71.10;;;;;;10351356;28;94879;-66
2023/08/02 20:48:50;;;;;;;;;;;22.20;71.00;;;;;;10351148;28;94369;-66
2023/08/02 20:53:51;;;;;;;;;;;22.20;71.00;;;;;;10366758;28;95837;-67
2023/08/02 20:58:54;;;;;;;;;;;22.20;71.00;;;;;;10368461;28;93486;-66
2023/08/02 21:04:00;;;;;;;;;;;22.20;71.00;;;;;;10369986;28;94529;-66
2023/08/02 21:09:02;;;;;;;;;;;22.20;71.00;;;;;;10376598;28;93688;-66
2023/08/02 21:14:04;;;;;;;;;;;22.20;70.90;;;;;;10375400;28;93326;-67
2023/08/02 21:19:07;;;;;;;;;;;22.20;70.90;;;;;;10376210;28;93437;-66
2023/08/02 21:24:18;;;;;;;;;;;22.20;70.90;;;;;;10375203;28;93415;-66
2023/08/02 21:29:20;;;;;;;;;;;22.20;70.80;;;;;;10375790;28;92650;-66
2023/08/02 21:34:22;;;;;;;;;;;22.20;70.80;;;;;;10375218;28;93436;-67
2023/08/02 21:39:24;;;;;;;;;;;22.20;70.90;;;;;;10373849;28;94673;-66
2023/08/02 21:44:28;;;;;;;;;;;22.20;70.80;;;;;;10336579;28;95819;-65
2023/08/02 21:49:30;;;;;;;;;;;22.20;70.70;;;;;;10373211;28;92735;-66
2023/08/02 21:54:31;;;;;;;;;;;22.20;70.70;;;;;;10356456;28;94447;-66
2023/08/02 21:59:33;;;;;;;;;;;22.20;70.80;;;;;;10374558;28;92856;-66
2023/08/02 22:04:35;;;;;;;;;;;22.20;70.60;;;;;;10374588;28;93113;-67
2023/08/02 22:09:37;;;;;;;;;;;22.20;70.60;;;;;;10373469;28;93855;-66
2023/08/02 22:14:39;;;;;;;;;;;22.20;70.60;;;;;;10373913;28;93572;-65
2023/08/02 22:19:43;;;;;;;;;;;22.20;70.60;;;;;;10354868;28;93293;-66
2023/08/02 22:24:46;;;;;;;;;;;22.20;70.50;;;;;;10372577;28;94386;-66
2023/08/02 22:29:48;;;;;;;;;;;22.20;70.40;;;;;;10337893;28;94046;-66
2023/08/02 22:35:00;;;;;;;;;;;22.20;70.40;;;;;;10370744;28;96749;-65
2023/08/02 22:40:02;;;;;;;;;;;22.20;70.40;;;;;;10372222;28;92932;-66
2023/08/02 22:45:05;;;;;;;;;;;22.20;70.40;;;;;;10370719;28;93434;-66
2023/08/02 22:50:07;;;;;;;;;;;22.20;70.40;;;;;;10372371;28;93399;-66
2023/08/02 22:55:12;;;;;;;;;;;22.20;70.40;;;;;;10372193;28;93292;-66
2023/08/02 23:00:17;;;;;;;;;;;22.20;70.40;;;;;;10371229;28;93409;-67
2023/08/02 23:05:19;;;;;;;;;;;22.20;70.40;;;;;;10352867;28;93747;-66
2023/08/02 23:10:30;;;;;;;;;;;22.20;70.40;;;;;;10354741;28;96098;-67
2023/08/02 23:15:32;;;;;;;;;;;22.20;70.30;;;;;;10352272;28;94442;-65
2023/08/02 23:20:37;;;;;;;;;;;22.20;70.40;;;;;;10337393;28;93131;-66
2023/08/02 23:25:38;;;;;;;;;;;22.20;70.40;;;;;;10367909;28;97916;-66
2023/08/02 23:30:40;;;;;;;;;;;22.20;70.30;;;;;;10353673;28;93426;-65
2023/08/02 23:35:42;;;;;;;;;;;22.20;70.40;;;;;;10372235;28;92603;-65
2023/08/02 23:40:44;;;;;;;;;;;22.20;70.30;;;;;;10352715;28;93315;-66
2023/08/02 23:45:46;;;;;;;;;;;22.20;70.40;;;;;;10353663;28;93484;-66
2023/08/02 23:50:48;;;;;;;;;;;22.20;70.30;;;;;;10352844;28;93506;-66
2023/08/02 23:55:50;;;;;;;;;;;22.20;70.30;;;;;;10352172;28;94365;-66
